Perez Atmospheric Data: 10/17/2020 Summary  Detailed Graphs  Station List

  Temperature     Wind Precipitation Visibility
Timestamp Air Wet
Bulb
Dew-
point
24-hr
Max
24-hr
Min
Relative
Humidity
Atmospheric
Pressure
Avg
Speed
Avg
Dir
Spot
Speed
Spot
Dir
Max
Speed
Max
Dir
  Rate Situation Start End 1 hr 3 hr 6 hr 12 hr 24 hr   Situation
Date Time °F °F °F °F °F % in Hg mph ° mph ° mph ° Y/N in/hr text Date Time Date Time in in in in in mi text
10/17/2020 12:00 AM 45.50 39.02 30.38 76.82 28.94 54.0 Not Reported 2.24 NE 2.01 NE 2.46 NE No 0.000 No Precipitation 10/15/2020 03:50 PM 10/15/2020 03:55 PM 0.000 0.000 0.000 0.000 0.000 Not Reported Not Reported
10/17/2020 12:05 AM 45.68 38.12 26.96 76.82 28.94 47.0 Not Reported 2.01 NE 2.01 NE 2.46 NE No 0.000 No Precipitation 10/15/2020 03:50 PM 10/15/2020 03:55 PM 0.000 0.000 0.000 0.000 0.000 Not Reported Not Reported
10/17/2020 12:20 AM 48.92 41.00 31.10 76.82 28.94 49.0 Not Reported 3.58 N 4.25 N 4.25 N No 0.000 No Precipitation 10/15/2020 03:50 PM 10/15/2020 03:55 PM 0.000 0.000 0.000 0.000 0.000 Not Reported Not Reported
10/17/2020 12:25 AM 49.28 41.36 31.10 76.82 28.94 48.0 Not Reported 4.47 N 4.47 N 4.92 N No 0.000 No Precipitation 10/15/2020 03:50 PM 10/15/2020 03:55 PM 0.000 0.000 0.000 0.000 0.000 Not Reported Not Reported
10/17/2020 12:30 AM 47.12 40.10 30.74 76.82 28.94 52.0 Not Reported 2.24 NE 2.24 NE 4.92 N No 0.000 No Precipitation 10/15/2020 03:50 PM 10/15/2020 03:55 PM 0.000 0.000 0.000 0.000 0.000 Not Reported Not Reported
10/17/2020 12:35 AM 47.48 39.74 29.12 76.82 28.94 48.0 Not Reported 1.79 NE 1.57 NE 4.47 N No 0.000 No Precipitation 10/15/2020 03:50 PM 10/15/2020 03:55 PM 0.000 0.000 0.000 0.000 0.000 Not Reported Not Reported
10/17/2020 12:40 AM 46.76 40.28 31.82 76.82 28.94 55.0 Not Reported 1.12 NE 1.34 N 2.46 NE No 0.000 No Precipitation 10/15/2020 03:50 PM 10/15/2020 03:55 PM 0.000 0.000 0.000 0.000 0.000 Not Reported Not Reported
10/17/2020 12:45 AM 42.26 36.32 27.32 76.82 28.94 54.0 Not Reported 1.34 NE 2.01 NE 2.01 NE No 0.000 No Precipitation 10/15/2020 03:50 PM 10/15/2020 03:55 PM 0.000 0.000 0.000 0.000 0.000 Not Reported Not Reported
10/17/2020 12:50 AM 42.26 36.86 29.30 76.82 28.94 59.0 Not Reported 1.34 NE 1.12 NE 2.01 NE No 0.000 No Precipitation 10/15/2020 03:50 PM 10/15/2020 03:55 PM 0.000 0.000 0.000 0.000 0.000 Not Reported Not Reported
10/17/2020 12:55 AM 43.70 37.22 28.04 76.82 28.94 53.0 Not Reported 1.57 NE 1.79 NE 2.01 NE No 0.000 No Precipitation 10/15/2020 03:50 PM 10/15/2020 03:55 PM 0.000 0.000 0.000 0.000 0.000 Not Reported Not Reported
10/17/2020 01:00 AM 43.34 38.30 31.82 76.82 28.94 62.0 Not Reported 2.46 NE 2.68 NE 2.68 N No 0.000 No Precipitation 10/15/2020 03:50 PM 10/15/2020 03:55 PM 0.000 0.000 0.000 0.000 0.000 Not Reported Not Reported
10/17/2020 01:05 AM 44.60 38.30 29.84 76.82 28.94 55.0 Not Reported 2.24 NE 2.68 NE 2.68 NE No 0.000 No Precipitation 10/15/2020 03:50 PM 10/15/2020 03:55 PM 0.000 0.000 0.000 0.000 0.000 Not Reported Not Reported
10/17/2020 01:10 AM 46.58 40.28 32.36 76.82 28.94 57.0 Not Reported 3.36 N 3.36 NE 3.58 N No 0.000 No Precipitation 10/15/2020 03:50 PM 10/15/2020 03:55 PM 0.000 0.000 0.000 0.000 0.000 Not Reported Not Reported
10/17/2020 01:20 AM 48.38 41.36 32.54 76.82 28.94 53.0 Not Reported 2.68 NE 2.68 NE 3.58 N No 0.000 No Precipitation 10/15/2020 03:50 PM 10/15/2020 03:55 PM 0.000 0.000 0.000 0.000 0.000 Not Reported Not Reported
10/17/2020 01:25 AM 46.76 40.46 32.18 76.82 28.94 56.0 Not Reported 2.46 NE 2.46 N 3.13 NE No 0.000 No Precipitation 10/15/2020 03:50 PM 10/15/2020 03:55 PM 0.000 0.000 0.000 0.000 0.000 Not Reported Not Reported
10/17/2020 01:30 AM 46.04 39.92 31.82 76.82 28.94 57.0 Not Reported 2.46 N 2.46 N 3.13 NE No 0.000 No Precipitation 10/15/2020 03:50 PM 10/15/2020 03:55 PM 0.000 0.000 0.000 0.000 0.000 Not Reported Not Reported
10/17/2020 01:35 AM 43.34 37.94 30.56 76.82 28.94 59.0 Not Reported 2.24 NE 2.01 NE 2.68 N No 0.000 No Precipitation 10/15/2020 03:50 PM 10/15/2020 03:55 PM 0.000 0.000 0.000 0.000 0.000 Not Reported Not Reported
10/17/2020 01:40 AM 41.54 36.86 30.20 76.82 28.94 63.0 Not Reported 0.89 NE 1.57 NE 2.46 N No 0.000 No Precipitation 10/15/2020 03:50 PM 10/15/2020 03:55 PM 0.000 0.000 0.000 0.000 0.000 Not Reported Not Reported
10/17/2020 01:45 AM 42.98 37.58 30.20 76.82 28.94 59.0 Not Reported 1.57 NE 1.79 E 2.01 NE No 0.000 No Precipitation 10/15/2020 03:50 PM 10/15/2020 03:55 PM 0.000 0.000 0.000 0.000 0.000 Not Reported Not Reported
10/17/2020 01:50 AM 42.44 37.04 29.30 76.82 28.94 58.0 Not Reported 2.01 NE 2.24 N 2.24 NE No 0.000 No Precipitation 10/15/2020 03:50 PM 10/15/2020 03:55 PM 0.000 0.000 0.000 0.000 0.000 Not Reported Not Reported
10/17/2020 02:00 AM 44.78 39.02 31.64 76.82 28.94 59.0 Not Reported 1.34 NE 1.57 NE 2.46 NE No 0.000 No Precipitation 10/15/2020 03:50 PM 10/15/2020 03:55 PM 0.000 0.000 0.000 0.000 0.000 Not Reported Not Reported
10/17/2020 02:05 AM 44.96 39.20 31.28 76.82 28.94 58.0 Not Reported 1.34 NE 1.12 NE 1.79 E No 0.000 No Precipitation 10/15/2020 03:50 PM 10/15/2020 03:55 PM 0.000 0.000 0.000 0.000 0.000 Not Reported Not Reported
10/17/2020 02:10 AM 41.18 36.86 30.92 76.82 28.94 66.0 Not Reported 2.01 NE 2.46 NE 2.68 NE No 0.000 No Precipitation 10/15/2020 03:50 PM 10/15/2020 03:55 PM 0.000 0.000 0.000 0.000 0.000 Not Reported Not Reported
10/17/2020 02:15 AM 41.00 36.14 29.12 76.82 28.94 61.0 Not Reported 2.01 NE 1.34 NE 2.68 NE No 0.000 No Precipitation 10/15/2020 03:50 PM 10/15/2020 03:55 PM 0.000 0.000 0.000 0.000 0.000 Not Reported Not Reported
10/17/2020 02:20 AM 39.56 35.06 28.58 76.82 28.94 63.0 Not Reported 1.79 E 1.79 E 2.68 NE No 0.000 No Precipitation 10/15/2020 03:50 PM 10/15/2020 03:55 PM 0.000 0.000 0.000 0.000 0.000 Not Reported Not Reported
10/17/2020 02:25 AM 42.62 37.76 31.10 76.82 28.94 62.0 Not Reported 2.01 E 2.68 E 2.68 E No 0.000 No Precipitation 10/15/2020 03:50 PM 10/15/2020 03:55 PM 0.000 0.000 0.000 0.000 0.000 Not Reported Not Reported
10/17/2020 02:30 AM 42.44 37.40 30.38 76.82 28.94 61.0 Not Reported 3.13 E 2.91 E 3.36 E No 0.000 No Precipitation 10/15/2020 03:50 PM 10/15/2020 03:55 PM 0.000 0.000 0.000 0.000 0.000 Not Reported Not Reported
10/17/2020 02:35 AM 44.06 38.84 32.00 76.82 28.94 61.0 Not Reported 2.46 E 2.01 NE 3.36 E No 0.000 No Precipitation 10/15/2020 03:50 PM 10/15/2020 03:55 PM 0.000 0.000 0.000 0.000 0.000 Not Reported Not Reported
10/17/2020 02:40 AM 43.52 38.30 31.28 76.82 28.94 61.0 Not Reported 2.91 NE 3.13 NE 3.13 NE No 0.000 No Precipitation 10/15/2020 03:50 PM 10/15/2020 03:55 PM 0.000 0.000 0.000 0.000 0.000 Not Reported Not Reported
10/17/2020 02:45 AM 44.60 39.38 32.72 76.82 28.94 62.0 Not Reported 2.91 NE 2.91 NE 3.36 NE No 0.000 No Precipitation 10/15/2020 03:50 PM 10/15/2020 03:55 PM 0.000 0.000 0.000 0.000 0.000 Not Reported Not Reported
10/17/2020 02:50 AM 45.14 39.74 32.72 76.82 28.94 61.0 Not Reported 2.24 N 2.91 N 3.36 NE No 0.000 No Precipitation 10/15/2020 03:50 PM 10/15/2020 03:55 PM 0.000 0.000 0.000 0.000 0.000 Not Reported Not Reported
10/17/2020 02:55 AM 45.50 40.28 33.44 76.82 28.94 62.0 Not Reported 3.80 N 4.25 NE 4.25 N No 0.000 No Precipitation 10/15/2020 03:50 PM 10/15/2020 03:55 PM 0.000 0.000 0.000 0.000 0.000 Not Reported Not Reported
10/17/2020 03:00 AM 47.66 41.54 33.80 76.82 28.94 58.0 Not Reported 3.58 N 1.34 N 4.70 NE No 0.000 No Precipitation 10/15/2020 03:50 PM 10/15/2020 03:55 PM 0.000 0.000 0.000 0.000 0.000 Not Reported Not Reported
10/17/2020 03:05 AM 48.02 41.90 34.52 76.82 28.94 59.0 Not Reported 2.91 N 2.46 N 4.70 NE No 0.000 No Precipitation 10/15/2020 03:50 PM 10/15/2020 03:55 PM 0.000 0.000 0.000 0.000 0.000 Not Reported Not Reported
10/17/2020 03:10 AM 41.72 36.32 28.76 76.82 28.94 59.0 Not Reported 1.34 NE 2.01 NE 3.13 N No 0.000 No Precipitation 10/15/2020 03:50 PM 10/15/2020 03:55 PM 0.000 0.000 0.000 0.000 0.000 Not Reported Not Reported
10/17/2020 03:15 AM 40.64 35.06 26.78 76.82 28.94 57.0 Not Reported 2.68 NE 2.91 N 3.13 N No 0.000 No Precipitation 10/15/2020 03:50 PM 10/15/2020 03:55 PM 0.000 0.000 0.000 0.000 0.000 Not Reported Not Reported
10/17/2020 03:20 AM 46.22 40.46 33.26 76.82 28.94 60.0 Not Reported 4.03 NE 2.01 NE 4.92 NE No 0.000 No Precipitation 10/15/2020 03:50 PM 10/15/2020 03:55 PM 0.000 0.000 0.000 0.000 0.000 Not Reported Not Reported
10/17/2020 03:25 AM 45.50 39.92 32.72 76.82 28.94 60.0 Not Reported 3.80 NE 3.13 N 4.92 NE No 0.000 No Precipitation 10/15/2020 03:50 PM 10/15/2020 03:55 PM 0.000 0.000 0.000 0.000 0.000 Not Reported Not Reported
10/17/2020 03:30 AM 47.66 41.36 33.62 76.82 28.94 57.0 Not Reported 2.24 N 1.34 N 4.47 N No 0.000 No Precipitation 10/15/2020 03:50 PM 10/15/2020 03:55 PM 0.000 0.000 0.000 0.000 0.000 Not Reported Not Reported
10/17/2020 03:35 AM 44.60 39.02 31.64 76.82 28.94 59.0 Not Reported 0.67 N 0.00 N 3.36 N No 0.000 No Precipitation 10/15/2020 03:50 PM 10/15/2020 03:55 PM 0.000 0.000 0.000 0.000 0.000 Not Reported Not Reported
10/17/2020 03:40 AM 42.98 37.94 31.28 76.82 28.94 62.0 Not Reported 0.00 W 0.00 NW 1.79 N No 0.000 No Precipitation 10/15/2020 03:50 PM 10/15/2020 03:55 PM 0.000 0.000 0.000 0.000 0.000 Not Reported Not Reported
10/17/2020 03:45 AM 36.32 32.54 26.60 76.82 28.94 66.0 Not Reported 0.45 NE 1.79 E 1.79 E No 0.000 No Precipitation 10/15/2020 03:50 PM 10/15/2020 03:55 PM 0.000 0.000 0.000 0.000 0.000 Not Reported Not Reported
10/17/2020 03:50 AM 39.38 35.42 30.02 76.82 28.94 68.0 Not Reported 2.24 E 2.24 E 2.68 E No 0.000 No Precipitation 10/15/2020 03:50 PM 10/15/2020 03:55 PM 0.000 0.000 0.000 0.000 0.000 Not Reported Not Reported
10/17/2020 03:55 AM 41.72 37.58 31.82 76.82 28.94 67.0 Not Reported 3.36 E 1.79 E 3.58 E No 0.000 No Precipitation 10/15/2020 03:50 PM 10/15/2020 03:55 PM 0.000 0.000 0.000 0.000 0.000 Not Reported Not Reported
10/17/2020 04:00 AM 42.62 37.94 31.46 76.82 28.94 63.0 Not Reported 2.01 E 2.24 E 3.58 E No 0.000 No Precipitation 10/15/2020 03:50 PM 10/15/2020 03:55 PM 0.000 0.000 0.000 0.000 0.000 Not Reported Not Reported
10/17/2020 04:05 AM 42.98 37.94 31.28 76.82 28.94 62.0 Not Reported 2.68 E 2.01 E 3.36 E No 0.000 No Precipitation 10/15/2020 03:50 PM 10/15/2020 03:55 PM 0.000 0.000 0.000 0.000 0.000 Not Reported Not Reported
10/17/2020 04:10 AM 36.32 32.18 25.70 76.82 28.94 64.0 Not Reported 3.36 SE 3.36 E 3.58 SE No 0.000 No Precipitation 10/15/2020 03:50 PM 10/15/2020 03:55 PM 0.000 0.000 0.000 0.000 0.000 Not Reported Not Reported
10/17/2020 04:25 AM 40.46 36.32 30.74 76.82 28.94 67.0 Not Reported 2.91 SE 4.03 SE 4.03 SE No 0.000 No Precipitation 10/15/2020 03:50 PM 10/15/2020 03:55 PM 0.000 0.000 0.000 0.000 0.000 Not Reported Not Reported
10/17/2020 04:30 AM 40.46 36.50 30.92 76.82 28.94 67.0 Not Reported 3.80 SE 3.80 SE 4.25 SE No 0.000 No Precipitation 10/15/2020 03:50 PM 10/15/2020 03:55 PM 0.000 0.000 0.000 0.000 0.000 Not Reported Not Reported
10/17/2020 04:35 AM 41.72 37.22 30.92 76.82 28.94 64.0 Not Reported 3.36 E 3.36 E 4.47 SE No 0.000 No Precipitation 10/15/2020 03:50 PM 10/15/2020 03:55 PM 0.000 0.000 0.000 0.000 0.000 Not Reported Not Reported
10/17/2020 04:40 AM 40.28 36.32 30.92 76.82 28.94 68.0 Not Reported 2.46 E 2.68 E 4.47 SE No 0.000 No Precipitation 10/15/2020 03:50 PM 10/15/2020 03:55 PM 0.000 0.000 0.000 0.000 0.000 Not Reported Not Reported
10/17/2020 04:45 AM 37.94 34.34 29.30 76.82 28.94 70.0 Not Reported 2.24 E 2.24 E 3.80 E No 0.000 No Precipitation 10/15/2020 03:50 PM 10/15/2020 03:55 PM 0.000 0.000 0.000 0.000 0.000 Not Reported Not Reported
10/17/2020 04:50 AM 37.94 35.06 30.74 76.82 28.94 74.0 Not Reported 2.91 E 2.68 E 3.36 E No 0.000 No Precipitation 10/15/2020 03:50 PM 10/15/2020 03:55 PM 0.000 0.000 0.000 0.000 0.000 Not Reported Not Reported
10/17/2020 04:55 AM 39.92 35.60 29.48 76.82 28.94 65.0 Not Reported 2.91 E 3.58 SE 3.58 SE No 0.000 No Precipitation 10/15/2020 03:50 PM 10/15/2020 03:55 PM 0.000 0.000 0.000 0.000 0.000 Not Reported Not Reported
10/17/2020 05:00 AM 40.46 36.68 31.46 76.82 28.94 69.0 Not Reported 4.03 SE 3.80 E 4.47 E No 0.000 No Precipitation 10/15/2020 03:50 PM 10/15/2020 03:55 PM 0.000 0.000 0.000 0.000 0.000 Not Reported Not Reported
10/17/2020 05:05 AM 39.02 35.06 29.30 76.82 28.94 67.0 Not Reported 4.47 SE 2.91 SE 4.70 SE No 0.000 No Precipitation 10/15/2020 03:50 PM 10/15/2020 03:55 PM 0.000 0.000 0.000 0.000 0.000 Not Reported Not Reported
10/17/2020 05:10 AM 39.20 35.42 29.84 76.82 28.94 68.0 Not Reported 3.80 SE 3.58 SE 4.70 SE No 0.000 No Precipitation 10/15/2020 03:50 PM 10/15/2020 03:55 PM 0.000 0.000 0.000 0.000 0.000 Not Reported Not Reported
10/17/2020 05:20 AM 38.12 33.80 26.96 76.82 28.94 63.0 Not Reported 2.68 SE 2.46 SE 4.03 SE No 0.000 No Precipitation 10/15/2020 03:50 PM 10/15/2020 03:55 PM 0.000 0.000 0.000 0.000 0.000 Not Reported Not Reported
10/17/2020 05:25 AM 36.68 33.80 29.30 76.82 28.94 73.0 Not Reported 2.68 SE 4.92 SE 4.92 SE No 0.000 No Precipitation 10/15/2020 03:50 PM 10/15/2020 03:55 PM 0.000 0.000 0.000 0.000 0.000 Not Reported Not Reported
10/17/2020 05:30 AM 39.92 35.96 30.20 76.82 28.94 67.0 Not Reported 4.92 SE 4.25 SE 5.59 SE No 0.000 No Precipitation 10/15/2020 03:50 PM 10/15/2020 03:55 PM 0.000 0.000 0.000 0.000 0.000 Not Reported Not Reported
10/17/2020 05:35 AM 40.82 36.68 31.10 76.82 28.94 67.0 Not Reported 2.46 E 3.58 SE 5.59 SE No 0.000 No Precipitation 10/15/2020 03:50 PM 10/15/2020 03:55 PM 0.000 0.000 0.000 0.000 0.000 Not Reported Not Reported
10/17/2020 05:40 AM 40.46 36.50 31.28 76.82 28.94 69.0 Not Reported 4.03 SE 4.03 SE 4.03 SE No 0.000 No Precipitation 10/15/2020 03:50 PM 10/15/2020 03:55 PM 0.000 0.000 0.000 0.000 0.000 Not Reported Not Reported
10/17/2020 05:45 AM 39.02 35.06 29.12 76.82 28.94 66.0 Not Reported 4.70 SE 4.70 SE 5.14 SE No 0.000 No Precipitation 10/15/2020 03:50 PM 10/15/2020 03:55 PM 0.000 0.000 0.000 0.000 0.000 Not Reported Not Reported
10/17/2020 05:50 AM 38.66 34.88 29.30 76.82 28.94 68.0 Not Reported 4.70 E 4.70 SE 5.37 SE No 0.000 No Precipitation 10/15/2020 03:50 PM 10/15/2020 03:55 PM 0.000 0.000 0.000 0.000 0.000 Not Reported Not Reported
10/17/2020 05:55 AM 39.92 36.32 31.28 76.82 28.94 70.0 Not Reported 4.70 SE 4.03 E 5.59 SE No 0.000 No Precipitation 10/15/2020 03:50 PM 10/15/2020 03:55 PM 0.000 0.000 0.000 0.000 0.000 Not Reported Not Reported
10/17/2020 06:00 AM 40.64 36.86 31.46 76.82 28.94 68.0 Not Reported 4.70 E 3.13 E 5.59 SE No 0.000 No Precipitation 10/15/2020 03:50 PM 10/15/2020 03:55 PM 0.000 0.000 0.000 0.000 0.000 Not Reported Not Reported
10/17/2020 06:05 AM 41.00 36.68 30.92 76.82 28.94 66.0 Not Reported 3.36 E 2.24 E 5.14 SE No 0.000 No Precipitation 10/15/2020 03:50 PM 10/15/2020 03:55 PM 0.000 0.000 0.000 0.000 0.000 Not Reported Not Reported
10/17/2020 06:10 AM 40.10 35.78 29.66 76.82 28.94 65.0 Not Reported 3.36 SE 2.91 E 4.70 E No 0.000 No Precipitation 10/15/2020 03:50 PM 10/15/2020 03:55 PM 0.000 0.000 0.000 0.000 0.000 Not Reported Not Reported
10/17/2020 06:15 AM 39.92 35.96 30.20 76.82 28.94 67.0 Not Reported 3.13 E 2.91 E 3.58 E No 0.000 No Precipitation 10/15/2020 03:50 PM 10/15/2020 03:55 PM 0.000 0.000 0.000 0.000 0.000 Not Reported Not Reported
10/17/2020 06:20 AM 39.92 35.96 30.20 76.82 28.94 67.0 Not Reported 3.80 E 4.03 E 4.03 E No 0.000 No Precipitation 10/15/2020 03:50 PM 10/15/2020 03:55 PM 0.000 0.000 0.000 0.000 0.000 Not Reported Not Reported
10/17/2020 06:25 AM 40.82 36.86 31.46 76.82 28.94 68.0 Not Reported 2.68 E 1.79 E 4.03 E No 0.000 No Precipitation 10/15/2020 03:50 PM 10/15/2020 03:55 PM 0.000 0.000 0.000 0.000 0.000 Not Reported Not Reported
10/17/2020 06:30 AM 40.10 36.14 30.74 76.82 28.94 68.0 Not Reported 3.36 E 2.68 E 4.03 E No 0.000 No Precipitation 10/15/2020 03:50 PM 10/15/2020 03:55 PM 0.000 0.000 0.000 0.000 0.000 Not Reported Not Reported
10/17/2020 06:35 AM 40.28 36.50 31.46 76.82 29.30 69.0 Not Reported 2.91 E 2.24 E 3.80 E No 0.000 No Precipitation 10/15/2020 03:50 PM 10/15/2020 03:55 PM 0.000 0.000 0.000 0.000 0.000 Not Reported Not Reported
10/17/2020 06:40 AM 40.46 36.68 31.46 76.82 29.30 69.0 Not Reported 3.13 E 3.13 E 3.58 E No 0.000 No Precipitation 10/15/2020 03:50 PM 10/15/2020 03:55 PM 0.000 0.000 0.000 0.000 0.000 Not Reported Not Reported
10/17/2020 06:45 AM 39.02 35.78 31.28 76.82 29.30 72.0 Not Reported 3.36 E 3.80 SE 3.80 SE No 0.000 No Precipitation 10/15/2020 03:50 PM 10/15/2020 03:55 PM 0.000 0.000 0.000 0.000 0.000 Not Reported Not Reported
10/17/2020 06:50 AM 38.30 34.88 29.84 76.82 29.48 71.0 Not Reported 3.13 SE 2.46 SE 4.03 SE No 0.000 No Precipitation 10/15/2020 03:50 PM 10/15/2020 03:55 PM 0.000 0.000 0.000 0.000 0.000 Not Reported Not Reported
10/17/2020 06:55 AM 38.48 34.70 29.30 76.82 29.66 68.0 Not Reported 2.46 SE 2.68 SE 4.03 SE No 0.000 No Precipitation 10/15/2020 03:50 PM 10/15/2020 03:55 PM 0.000 0.000 0.000 0.000 0.000 Not Reported Not Reported
10/17/2020 07:00 AM 39.56 35.96 30.92 76.82 29.66 70.0 Not Reported 2.01 SE 2.46 E 2.91 SE No 0.000 No Precipitation 10/15/2020 03:50 PM 10/15/2020 03:55 PM 0.000 0.000 0.000 0.000 0.000 Not Reported Not Reported
10/17/2020 07:05 AM 36.86 33.62 28.94 76.82 29.84 72.0 Not Reported 2.01 E 0.89 SE 2.91 SE No 0.000 No Precipitation 10/15/2020 03:50 PM 10/15/2020 03:55 PM 0.000 0.000 0.000 0.000 0.000 Not Reported Not Reported
10/17/2020 07:10 AM 37.22 34.34 30.02 76.82 29.84 74.0 Not Reported 0.00 SE 1.57 SE 2.24 E No 0.000 No Precipitation 10/15/2020 03:50 PM 10/15/2020 03:55 PM 0.000 0.000 0.000 0.000 0.000 Not Reported Not Reported
10/17/2020 07:15 AM 39.56 35.96 30.92 76.82 29.84 70.0 Not Reported 1.57 SE 2.46 SE 2.68 E No 0.000 No Precipitation 10/15/2020 03:50 PM 10/15/2020 03:55 PM 0.000 0.000 0.000 0.000 0.000 Not Reported Not Reported
10/17/2020 07:20 AM 36.50 33.62 29.48 76.82 30.20 74.0 Not Reported 2.01 E 2.68 E 3.36 SE No 0.000 No Precipitation 10/15/2020 03:50 PM 10/15/2020 03:55 PM 0.000 0.000 0.000 0.000 0.000 Not Reported Not Reported
10/17/2020 07:30 AM 39.56 36.14 31.64 76.82 30.92 72.0 Not Reported 2.24 E 2.46 E 3.36 E No 0.000 No Precipitation 10/15/2020 03:50 PM 10/15/2020 03:55 PM 0.000 0.000 0.000 0.000 0.000 Not Reported Not Reported
10/17/2020 07:35 AM 38.48 34.88 29.84 76.82 30.92 70.0 Not Reported 4.03 E 4.03 E 4.03 E No 0.000 No Precipitation 10/15/2020 03:50 PM 10/15/2020 03:55 PM 0.000 0.000 0.000 0.000 0.000 Not Reported Not Reported
10/17/2020 07:40 AM 38.84 35.42 30.56 76.82 31.10 71.0 Not Reported 3.36 E 2.91 E 4.03 E No 0.000 No Precipitation 10/15/2020 03:50 PM 10/15/2020 03:55 PM 0.000 0.000 0.000 0.000 0.000 Not Reported Not Reported
10/17/2020 07:45 AM 38.66 35.24 30.20 76.82 31.46 71.0 Not Reported 2.68 E 2.68 E 4.03 E No 0.000 No Precipitation 10/15/2020 03:50 PM 10/15/2020 03:55 PM 0.000 0.000 0.000 0.000 0.000 Not Reported Not Reported
10/17/2020 07:50 AM 40.28 36.68 31.46 76.82 32.00 69.0 Not Reported 2.46 E 2.68 E 2.68 E No 0.000 No Precipitation 10/15/2020 03:50 PM 10/15/2020 03:55 PM 0.000 0.000 0.000 0.000 0.000 Not Reported Not Reported
10/17/2020 07:55 AM 39.74 35.42 29.12 76.82 33.80 65.0 Not Reported 2.24 E 1.79 E 2.68 E No 0.000 No Precipitation 10/15/2020 03:50 PM 10/15/2020 03:55 PM 0.000 0.000 0.000 0.000 0.000 Not Reported Not Reported
10/17/2020 08:00 AM 40.46 36.14 29.84 76.82 35.06 65.0 Not Reported 1.34 E 1.12 E 2.68 SE No 0.000 No Precipitation 10/15/2020 03:50 PM 10/15/2020 03:55 PM 0.000 0.000 0.000 0.000 0.000 Not Reported Not Reported
10/17/2020 08:05 AM 41.54 36.86 30.20 76.82 35.42 63.0 Not Reported 3.13 E 3.13 E 3.58 SE No 0.000 No Precipitation 10/15/2020 03:50 PM 10/15/2020 03:55 PM 0.000 0.000 0.000 0.000 0.000 Not Reported Not Reported
10/17/2020 08:10 AM 42.98 37.94 31.28 76.82 35.42 62.0 Not Reported 2.91 E 2.68 E 3.80 E No 0.000 No Precipitation 10/15/2020 03:50 PM 10/15/2020 03:55 PM 0.000 0.000 0.000 0.000 0.000 Not Reported Not Reported
10/17/2020 08:15 AM 44.24 38.66 31.10 76.82 35.42 59.0 Not Reported 3.13 E 2.91 E 3.80 E No 0.000 No Precipitation 10/15/2020 03:50 PM 10/15/2020 03:55 PM 0.000 0.000 0.000 0.000 0.000 Not Reported Not Reported
10/17/2020 08:20 AM 45.32 39.38 31.46 76.82 35.42 57.0 Not Reported 2.91 E 2.91 E 3.58 E No 0.000 No Precipitation 10/15/2020 03:50 PM 10/15/2020 03:55 PM 0.000 0.000 0.000 0.000 0.000 Not Reported Not Reported
10/17/2020 08:25 AM 47.12 40.46 32.00 76.82 35.42 55.0 Not Reported 2.91 E 3.36 E 3.58 E No 0.000 No Precipitation 10/15/2020 03:50 PM 10/15/2020 03:55 PM 0.000 0.000 0.000 0.000 0.000 Not Reported Not Reported
10/17/2020 08:30 AM 49.64 42.62 33.98 76.82 35.42 54.0 Not Reported 3.36 E 1.79 E 4.92 SE No 0.000 No Precipitation 10/15/2020 03:50 PM 10/15/2020 03:55 PM 0.000 0.000 0.000 0.000 0.000 Not Reported Not Reported
10/17/2020 08:35 AM 51.62 43.52 34.16 76.82 35.42 51.0 Not Reported 2.68 E 2.91 E 4.92 SE No 0.000 No Precipitation 10/15/2020 03:50 PM 10/15/2020 03:55 PM 0.000 0.000 0.000 0.000 0.000 Not Reported Not Reported
10/17/2020 08:40 AM 53.42 44.60 34.52 76.82 35.42 48.0 Not Reported 0.89 E 3.36 E 3.80 E No 0.000 No Precipitation 10/15/2020 03:50 PM 10/15/2020 03:55 PM 0.000 0.000 0.000 0.000 0.000 Not Reported Not Reported
10/17/2020 08:45 AM 55.40 45.86 35.24 76.82 35.42 46.0 Not Reported 1.57 NE 0.89 NE 3.36 E No 0.000 No Precipitation 10/15/2020 03:50 PM 10/15/2020 03:55 PM 0.000 0.000 0.000 0.000 0.000 Not Reported Not Reported
10/17/2020 08:50 AM 57.02 46.76 35.42 76.82 35.42 44.0 Not Reported 1.57 E 2.01 N 2.91 E No 0.000 No Precipitation 10/15/2020 03:50 PM 10/15/2020 03:55 PM 0.000 0.000 0.000 0.000 0.000 Not Reported Not Reported
10/17/2020 08:55 AM 57.92 47.12 35.42 76.82 35.42 42.0 Not Reported 0.22 E 2.91 SE 2.91 SE No 0.000 No Precipitation 10/15/2020 03:50 PM 10/15/2020 03:55 PM 0.000 0.000 0.000 0.000 0.000 Not Reported Not Reported
10/17/2020 09:00 AM 57.74 47.12 35.60 76.82 35.42 43.0 Not Reported 1.57 E 2.68 E 4.25 NE No 0.000 No Precipitation 10/15/2020 03:50 PM 10/15/2020 03:55 PM 0.000 0.000 0.000 0.000 0.000 Not Reported Not Reported
10/17/2020 09:05 AM 58.28 47.30 35.24 76.82 35.42 42.0 Not Reported 2.68 NE 1.57 NE 4.25 NE No 0.000 No Precipitation 10/15/2020 03:50 PM 10/15/2020 03:55 PM 0.000 0.000 0.000 0.000 0.000 Not Reported Not Reported
10/17/2020 09:10 AM 58.28 47.30 35.24 76.82 35.42 41.0 Not Reported 3.13 NE 3.58 NE 4.47 NE No 0.000 No Precipitation 10/15/2020 03:50 PM 10/15/2020 03:55 PM 0.000 0.000 0.000 0.000 0.000 Not Reported Not Reported
10/17/2020 09:15 AM 59.00 47.66 35.24 76.82 35.42 40.0 Not Reported 3.13 NE 1.79 N 4.47 NE No 0.000 No Precipitation 10/15/2020 03:50 PM 10/15/2020 03:55 PM 0.000 0.000 0.000 0.000 0.000 Not Reported Not Reported
10/17/2020 09:20 AM 59.18 47.84 35.42 76.82 35.42 40.0 Not Reported 4.25 NE 3.13 NE 5.59 NE No 0.000 No Precipitation 10/15/2020 03:50 PM 10/15/2020 03:55 PM 0.000 0.000 0.000 0.000 0.000 Not Reported Not Reported
10/17/2020 09:25 AM 58.82 47.48 35.42 76.82 35.42 41.0 Not Reported 2.46 NW 2.46 N 5.59 NE No 0.000 No Precipitation 10/15/2020 03:50 PM 10/15/2020 03:55 PM 0.000 0.000 0.000 0.000 0.000 Not Reported Not Reported
10/17/2020 09:35 AM 59.72 47.66 34.70 76.82 35.42 38.0 Not Reported 1.12 NW 2.01 N 4.03 NW No 0.000 No Precipitation 10/15/2020 03:50 PM 10/15/2020 03:55 PM 0.000 0.000 0.000 0.000 0.000 Not Reported Not Reported
10/17/2020 09:40 AM 59.72 47.84 34.88 76.82 35.42 39.0 Not Reported 3.36 N 2.68 W 5.37 N No 0.000 No Precipitation 10/15/2020 03:50 PM 10/15/2020 03:55 PM 0.000 0.000 0.000 0.000 0.000 Not Reported Not Reported
10/17/2020 09:45 AM 59.54 47.84 35.06 76.82 35.42 39.0 Not Reported 6.93 NE 4.70 N 8.28 NE No 0.000 No Precipitation 10/15/2020 03:50 PM 10/15/2020 03:55 PM 0.000 0.000 0.000 0.000 0.000 Not Reported Not Reported
10/17/2020 09:50 AM 60.26 48.02 35.06 76.82 35.42 38.0 Not Reported 4.92 N 4.25 W 8.28 NE No 0.000 No Precipitation 10/15/2020 03:50 PM 10/15/2020 03:55 PM 0.000 0.000 0.000 0.000 0.000 Not Reported Not Reported
10/17/2020 09:55 AM 60.80 48.38 35.06 76.82 35.42 37.0 Not Reported 2.91 N 4.70 NE 6.71 N No 0.000 No Precipitation 10/15/2020 03:50 PM 10/15/2020 03:55 PM 0.000 0.000 0.000 0.000 0.000 Not Reported Not Reported
10/17/2020 10:00 AM 61.16 48.56 34.70 76.82 35.42 37.0 Not Reported 2.24 NW 2.91 N 6.04 NE No 0.000 No Precipitation 10/15/2020 03:50 PM 10/15/2020 03:55 PM 0.000 0.000 0.000 0.000 0.000 Not Reported Not Reported
10/17/2020 10:05 AM 60.26 48.02 34.88 76.82 35.42 38.0 Not Reported 6.26 N 6.49 N 8.95 NE No 0.000 No Precipitation 10/15/2020 03:50 PM 10/15/2020 03:55 PM 0.000 0.000 0.000 0.000 0.000 Not Reported Not Reported
10/17/2020 10:10 AM 60.08 48.02 34.88 76.82 35.42 38.0 Not Reported 6.93 N 3.36 NE 8.95 NE No 0.000 No Precipitation 10/15/2020 03:50 PM 10/15/2020 03:55 PM 0.000 0.000 0.000 0.000 0.000 Not Reported Not Reported
10/17/2020 10:15 AM 61.16 48.56 34.88 76.82 35.42 37.0 Not Reported 5.14 NE 6.26 NE 8.50 N No 0.000 No Precipitation 10/15/2020 03:50 PM 10/15/2020 03:55 PM 0.000 0.000 0.000 0.000 0.000 Not Reported Not Reported
10/17/2020 10:20 AM 61.34 48.56 35.06 76.82 35.42 37.0 Not Reported 6.04 N 4.92 NE 9.84 N No 0.000 No Precipitation 10/15/2020 03:50 PM 10/15/2020 03:55 PM 0.000 0.000 0.000 0.000 0.000 Not Reported Not Reported
10/17/2020 10:25 AM 62.60 49.28 35.24 76.82 35.42 35.0 Not Reported 5.14 NE 6.04 N 9.84 N No 0.000 No Precipitation 10/15/2020 03:50 PM 10/15/2020 03:55 PM 0.000 0.000 0.000 0.000 0.000 Not Reported Not Reported
10/17/2020 10:30 AM 62.96 49.46 35.42 76.82 35.42 35.0 Not Reported 6.04 NE 1.34 NW 8.28 N No 0.000 No Precipitation 10/15/2020 03:50 PM 10/15/2020 03:55 PM 0.000 0.000 0.000 0.000 0.000 Not Reported Not Reported
10/17/2020 10:35 AM 63.14 49.46 35.24 76.82 35.42 35.0 Not Reported 3.36 N 2.46 N 8.28 N No 0.000 No Precipitation 10/15/2020 03:50 PM 10/15/2020 03:55 PM 0.000 0.000 0.000 0.000 0.000 Not Reported Not Reported
10/17/2020 10:40 AM 62.96 49.46 35.06 76.82 35.42 35.0 Not Reported 3.58 N 5.59 NW 6.26 N No 0.000 No Precipitation 10/15/2020 03:50 PM 10/15/2020 03:55 PM 0.000 0.000 0.000 0.000 0.000 Not Reported Not Reported
10/17/2020 10:45 AM 63.86 49.82 35.06 76.82 35.42 34.0 Not Reported 2.24 NW 2.01 NW 6.26 N No 0.000 No Precipitation 10/15/2020 03:50 PM 10/15/2020 03:55 PM 0.000 0.000 0.000 0.000 0.000 Not Reported Not Reported
10/17/2020 10:50 AM 64.94 50.54 35.60 76.82 35.42 33.0 Not Reported 2.46 NW 1.57 NW 4.92 N No 0.000 No Precipitation 10/15/2020 03:50 PM 10/15/2020 03:55 PM 0.000 0.000 0.000 0.000 0.000 Not Reported Not Reported
10/17/2020 10:55 AM 64.58 50.18 35.24 76.82 35.42 33.0 Not Reported 4.25 NW 2.24 W 5.37 NW No 0.000 No Precipitation 10/15/2020 03:50 PM 10/15/2020 03:55 PM 0.000 0.000 0.000 0.000 0.000 Not Reported Not Reported
10/17/2020 11:00 AM 65.30 50.72 35.78 76.82 35.42 33.0 Not Reported 2.68 NW 2.46 W 5.37 NW No 0.000 No Precipitation 10/15/2020 03:50 PM 10/15/2020 03:55 PM 0.000 0.000 0.000 0.000 0.000 Not Reported Not Reported
10/17/2020 11:05 AM 64.94 50.36 35.42 76.82 35.42 33.0 Not Reported 4.03 NW 4.03 N 4.92 N No 0.000 No Precipitation 10/15/2020 03:50 PM 10/15/2020 03:55 PM 0.000 0.000 0.000 0.000 0.000 Not Reported Not Reported
10/17/2020 11:10 AM 65.84 50.90 35.96 76.82 35.42 32.0 Not Reported 3.13 N 1.57 NW 4.92 N No 0.000 No Precipitation 10/15/2020 03:50 PM 10/15/2020 03:55 PM 0.000 0.000 0.000 0.000 0.000 Not Reported Not Reported
10/17/2020 11:15 AM 66.20 50.90 35.60 76.82 35.42 32.0 Not Reported 3.36 NW 2.24 N 4.92 N No 0.000 No Precipitation 10/15/2020 03:50 PM 10/15/2020 03:55 PM 0.000 0.000 0.000 0.000 0.000 Not Reported Not Reported
10/17/2020 11:20 AM 66.56 51.26 35.96 76.82 35.42 32.0 Not Reported 3.58 N 1.57 NW 4.92 NW No 0.000 No Precipitation 10/15/2020 03:50 PM 10/15/2020 03:55 PM 0.000 0.000 0.000 0.000 0.000 Not Reported Not Reported
10/17/2020 11:25 AM 66.92 51.62 36.14 76.82 35.42 32.0 Not Reported 2.46 N 1.79 N 4.92 NW No 0.000 No Precipitation 10/15/2020 03:50 PM 10/15/2020 03:55 PM 0.000 0.000 0.000 0.000 0.000 Not Reported Not Reported
10/17/2020 11:30 AM 65.66 50.90 36.14 76.82 35.42 33.0 Not Reported 8.05 N 5.82 N 8.72 NW No 0.000 No Precipitation 10/15/2020 03:50 PM 10/15/2020 03:55 PM 0.000 0.000 0.000 0.000 0.000 Not Reported Not Reported
10/17/2020 11:35 AM 66.20 51.44 36.86 76.82 35.42 33.0 Not Reported 5.59 N 2.68 NW 9.62 N No 0.000 No Precipitation 10/15/2020 03:50 PM 10/15/2020 03:55 PM 0.000 0.000 0.000 0.000 0.000 Not Reported Not Reported
10/17/2020 11:40 AM 66.56 51.44 36.14 76.82 35.42 32.0 Not Reported 4.70 N 4.25 N 9.62 N No 0.000 No Precipitation 10/15/2020 03:50 PM 10/15/2020 03:55 PM 0.000 0.000 0.000 0.000 0.000 Not Reported Not Reported
10/17/2020 11:45 AM 66.56 51.62 36.68 76.82 35.42 33.0 Not Reported 4.03 N 4.47 N 6.71 N No 0.000 No Precipitation 10/15/2020 03:50 PM 10/15/2020 03:55 PM 0.000 0.000 0.000 0.000 0.000 Not Reported Not Reported
10/17/2020 11:50 AM 67.82 52.16 37.04 76.82 35.42 32.0 Not Reported 5.59 N 3.36 N 8.05 N No 0.000 No Precipitation 10/15/2020 03:50 PM 10/15/2020 03:55 PM 0.000 0.000 0.000 0.000 0.000 Not Reported Not Reported
10/17/2020 11:55 AM 67.28 52.16 37.40 76.82 35.42 33.0 Not Reported 5.82 NW 5.14 NW 8.05 N No 0.000 No Precipitation 10/15/2020 03:50 PM 10/15/2020 03:55 PM 0.000 0.000 0.000 0.000 0.000 Not Reported Not Reported
10/17/2020 12:00 PM 68.36 52.52 37.22 76.82 35.42 31.0 Not Reported 3.13 NW 2.91 NW 7.83 N No 0.000 No Precipitation 10/15/2020 03:50 PM 10/15/2020 03:55 PM 0.000 0.000 0.000 0.000 0.000 Not Reported Not Reported
10/17/2020 12:05 PM 67.82 52.16 36.86 76.82 35.42 31.0 Not Reported 4.25 N 7.83 N 7.83 N No 0.000 No Precipitation 10/15/2020 03:50 PM 10/15/2020 03:55 PM 0.000 0.000 0.000 0.000 0.000 Not Reported Not Reported
10/17/2020 12:10 PM 69.08 52.88 37.22 76.82 35.42 31.0 Not Reported 2.01 NW 5.82 N 7.83 N No 0.000 No Precipitation 10/15/2020 03:50 PM 10/15/2020 03:55 PM 0.000 0.000 0.000 0.000 0.000 Not Reported Not Reported
10/17/2020 12:15 PM 68.00 52.34 36.86 76.82 35.42 31.0 Not Reported 2.91 NW 2.91 N 5.82 N No 0.000 No Precipitation 10/15/2020 03:50 PM 10/15/2020 03:55 PM 0.000 0.000 0.000 0.000 0.000 Not Reported Not Reported
10/17/2020 12:20 PM 70.16 53.24 37.04 76.82 35.42 29.0 Not Reported 2.24 NW 3.13 NW 6.26 NE No 0.000 No Precipitation 10/15/2020 03:50 PM 10/15/2020 03:55 PM 0.000 0.000 0.000 0.000 0.000 Not Reported Not Reported
10/17/2020 12:30 PM 69.44 53.06 37.22 76.82 35.42 30.0 Not Reported 3.36 NW 3.80 W 7.83 NE No 0.000 No Precipitation 10/15/2020 03:50 PM 10/15/2020 03:55 PM 0.000 0.000 0.000 0.000 0.000 Not Reported Not Reported
10/17/2020 12:35 PM 69.98 52.70 35.78 76.82 35.42 28.0 Not Reported 2.91 NW 11.63 NW 11.63 NW No 0.000 No Precipitation 10/15/2020 03:50 PM 10/15/2020 03:55 PM 0.000 0.000 0.000 0.000 0.000 Not Reported Not Reported
10/17/2020 12:40 PM 69.80 52.70 35.96 76.82 35.42 28.0 Not Reported 3.58 N 7.38 N 11.63 NW No 0.000 No Precipitation 10/15/2020 03:50 PM 10/15/2020 03:55 PM 0.000 0.000 0.000 0.000 0.000 Not Reported Not Reported
10/17/2020 12:45 PM 70.70 53.06 36.14 76.82 35.42 28.0 Not Reported 3.58 NW 1.57 N 8.28 NE No 0.000 No Precipitation 10/15/2020 03:50 PM 10/15/2020 03:55 PM 0.000 0.000 0.000 0.000 0.000 Not Reported Not Reported
10/17/2020 12:50 PM 69.80 52.70 35.60 76.82 35.42 28.0 Not Reported 5.59 N 7.61 N 8.28 NE No 0.000 No Precipitation 10/15/2020 03:50 PM 10/15/2020 03:55 PM 0.000 0.000 0.000 0.000 0.000 Not Reported Not Reported
10/17/2020 12:55 PM 69.44 52.34 35.42 76.82 35.42 28.0 Not Reported 7.61 N 4.03 W 9.62 N No 0.000 No Precipitation 10/15/2020 03:50 PM 10/15/2020 03:55 PM 0.000 0.000 0.000 0.000 0.000 Not Reported Not Reported
10/17/2020 01:00 PM 70.52 52.70 35.24 76.82 35.42 27.0 Not Reported 3.58 NW 1.79 NW 9.84 N No 0.000 No Precipitation 10/15/2020 03:50 PM 10/15/2020 03:55 PM 0.000 0.000 0.000 0.000 0.000 Not Reported Not Reported
10/17/2020 01:05 PM 69.80 52.52 35.24 76.82 35.42 28.0 Not Reported 5.14 N 5.14 N 9.84 N No 0.000 No Precipitation 10/15/2020 03:50 PM 10/15/2020 03:55 PM 0.000 0.000 0.000 0.000 0.000 Not Reported Not Reported
10/17/2020 01:10 PM 70.34 52.88 35.60 76.82 35.42 27.0 Not Reported 3.13 NW 3.36 NE 7.38 N No 0.000 No Precipitation 10/15/2020 03:50 PM 10/15/2020 03:55 PM 0.000 0.000 0.000 0.000 0.000 Not Reported Not Reported
10/17/2020 01:15 PM 69.80 52.70 35.60 76.82 35.42 28.0 Not Reported 8.72 N 4.70 N 9.17 N No 0.000 No Precipitation 10/15/2020 03:50 PM 10/15/2020 03:55 PM 0.000 0.000 0.000 0.000 0.000 Not Reported Not Reported
10/17/2020 01:20 PM 71.60 53.42 35.96 76.82 35.42 26.0 Not Reported 3.36 NW 3.58 NW 9.17 N No 0.000 No Precipitation 10/15/2020 03:50 PM 10/15/2020 03:55 PM 0.000 0.000 0.000 0.000 0.000 Not Reported Not Reported
10/17/2020 01:30 PM 71.42 53.42 35.96 76.82 35.42 27.0 Not Reported 4.92 N 4.47 N 7.16 N No 0.000 No Precipitation 10/15/2020 03:50 PM 10/15/2020 03:55 PM 0.000 0.000 0.000 0.000 0.000 Not Reported Not Reported
10/17/2020 01:35 PM 70.88 53.24 36.14 76.82 35.42 28.0 Not Reported 5.82 N 1.12 NE 7.61 N No 0.000 No Precipitation 10/15/2020 03:50 PM 10/15/2020 03:55 PM 0.000 0.000 0.000 0.000 0.000 Not Reported Not Reported
10/17/2020 01:40 PM 71.60 53.60 35.96 76.82 35.42 27.0 Not Reported 6.49 N 3.13 NW 7.61 N No 0.000 No Precipitation 10/15/2020 03:50 PM 10/15/2020 03:55 PM 0.000 0.000 0.000 0.000 0.000 Not Reported Not Reported
10/17/2020 01:45 PM 71.96 53.60 35.96 76.82 35.42 26.0 Not Reported 5.37 N 4.92 N 10.74 N No 0.000 No Precipitation 10/15/2020 03:50 PM 10/15/2020 03:55 PM 0.000 0.000 0.000 0.000 0.000 Not Reported Not Reported
10/17/2020 01:50 PM 71.60 53.60 36.50 76.82 35.42 27.0 Not Reported 8.95 NE 6.49 N 10.74 N No 0.000 No Precipitation 10/15/2020 03:50 PM 10/15/2020 03:55 PM 0.000 0.000 0.000 0.000 0.000 Not Reported Not Reported
10/17/2020 01:55 PM 71.06 53.42 36.50 76.82 35.42 28.0 Not Reported 6.04 N 2.68 N 11.41 N No 0.000 No Precipitation 10/15/2020 03:50 PM 10/15/2020 03:55 PM 0.000 0.000 0.000 0.000 0.000 Not Reported Not Reported
10/17/2020 02:00 PM 71.06 53.42 36.32 76.82 35.42 28.0 Not Reported 5.37 N 3.36 N 11.41 N No 0.000 No Precipitation 10/15/2020 03:50 PM 10/15/2020 03:55 PM 0.000 0.000 0.000 0.000 0.000 Not Reported Not Reported
10/17/2020 02:05 PM 73.22 54.32 36.68 76.82 35.42 26.0 Not Reported 2.24 W 2.01 N 7.83 NW No 0.000 No Precipitation 10/15/2020 03:50 PM 10/15/2020 03:55 PM 0.000 0.000 0.000 0.000 0.000 Not Reported Not Reported
10/17/2020 02:10 PM 71.60 53.60 36.68 76.82 35.42 27.0 Not Reported 2.24 NW 3.13 W 11.63 N No 0.000 No Precipitation 10/15/2020 03:50 PM 10/15/2020 03:55 PM 0.000 0.000 0.000 0.000 0.000 Not Reported Not Reported
10/17/2020 02:20 PM 73.22 54.32 36.14 76.82 35.42 25.0 Not Reported 3.36 N 4.47 N 12.08 N No 0.000 No Precipitation 10/15/2020 03:50 PM 10/15/2020 03:55 PM 0.000 0.000 0.000 0.000 0.000 Not Reported Not Reported
10/17/2020 02:25 PM 73.04 54.14 35.96 76.82 35.42 25.0 Not Reported 4.25 N 8.50 NE 10.29 NE No 0.000 No Precipitation 10/15/2020 03:50 PM 10/15/2020 03:55 PM 0.000 0.000 0.000 0.000 0.000 Not Reported Not Reported
10/17/2020 02:30 PM 72.86 54.14 36.14 76.82 35.42 26.0 Not Reported 8.72 NE 7.16 N 10.29 NE No 0.000 No Precipitation 10/15/2020 03:50 PM 10/15/2020 03:55 PM 0.000 0.000 0.000 0.000 0.000 Not Reported Not Reported
10/17/2020 02:35 PM 73.22 54.50 35.96 76.82 35.42 25.0 Not Reported 3.36 NW 5.82 N 10.29 N No 0.000 No Precipitation 10/15/2020 03:50 PM 10/15/2020 03:55 PM 0.000 0.000 0.000 0.000 0.000 Not Reported Not Reported
10/17/2020 02:40 PM 72.86 54.14 36.14 76.82 35.42 26.0 Not Reported 2.91 NW 4.92 W 7.16 N No 0.000 No Precipitation 10/15/2020 03:50 PM 10/15/2020 03:55 PM 0.000 0.000 0.000 0.000 0.000 Not Reported Not Reported
10/17/2020 02:45 PM 71.96 53.78 36.32 76.82 35.42 27.0 Not Reported 4.92 N 10.29 NE 10.29 NE No 0.000 No Precipitation 10/15/2020 03:50 PM 10/15/2020 03:55 PM 0.000 0.000 0.000 0.000 0.000 Not Reported Not Reported
10/17/2020 02:50 PM 71.96 53.78 36.32 76.82 35.42 27.0 Not Reported 4.92 N 3.36 N 10.29 NE No 0.000 No Precipitation 10/15/2020 03:50 PM 10/15/2020 03:55 PM 0.000 0.000 0.000 0.000 0.000 Not Reported Not Reported
10/17/2020 02:55 PM 73.04 54.32 36.86 76.82 35.42 26.0 Not Reported 4.92 N 3.36 W 9.17 N No 0.000 No Precipitation 10/15/2020 03:50 PM 10/15/2020 03:55 PM 0.000 0.000 0.000 0.000 0.000 Not Reported Not Reported
10/17/2020 03:00 PM 72.86 54.14 36.50 76.82 35.42 26.0 Not Reported 3.58 N 2.01 NW 9.17 N No 0.000 No Precipitation 10/15/2020 03:50 PM 10/15/2020 03:55 PM 0.000 0.000 0.000 0.000 0.000 Not Reported Not Reported
10/17/2020 03:05 PM 72.86 54.14 36.50 76.82 35.42 26.0 Not Reported 8.95 NE 6.71 N 10.96 N No 0.000 No Precipitation 10/15/2020 03:50 PM 10/15/2020 03:55 PM 0.000 0.000 0.000 0.000 0.000 Not Reported Not Reported
10/17/2020 03:10 PM 72.86 54.32 36.68 76.82 35.42 26.0 Not Reported 8.28 N 6.04 N 10.96 N No 0.000 No Precipitation 10/15/2020 03:50 PM 10/15/2020 03:55 PM 0.000 0.000 0.000 0.000 0.000 Not Reported Not Reported
10/17/2020 03:15 PM 73.22 54.32 36.32 76.82 35.42 25.0 Not Reported 4.70 N 4.92 W 10.51 N No 0.000 No Precipitation 10/15/2020 03:50 PM 10/15/2020 03:55 PM 0.000 0.000 0.000 0.000 0.000 Not Reported Not Reported
10/17/2020 03:20 PM 73.40 54.32 36.14 76.82 35.42 25.0 Not Reported 8.50 N 10.29 N 10.29 N No 0.000 No Precipitation 10/15/2020 03:50 PM 10/15/2020 03:55 PM 0.000 0.000 0.000 0.000 0.000 Not Reported Not Reported
10/17/2020 03:25 PM 73.04 53.96 35.78 76.82 35.42 25.0 Not Reported 6.93 NE 10.29 N 11.63 N No 0.000 No Precipitation 10/15/2020 03:50 PM 10/15/2020 03:55 PM 0.000 0.000 0.000 0.000 0.000 Not Reported Not Reported
10/17/2020 03:30 PM 73.76 54.32 35.60 76.82 35.42 24.0 Not Reported 5.59 N 7.83 N 11.63 N No 0.000 No Precipitation 10/15/2020 03:50 PM 10/15/2020 03:55 PM 0.000 0.000 0.000 0.000 0.000 Not Reported Not Reported
10/17/2020 03:35 PM 73.40 54.14 35.78 76.82 35.42 25.0 Not Reported 5.37 NW 7.83 N 10.96 N No 0.000 No Precipitation 10/15/2020 03:50 PM 10/15/2020 03:55 PM 0.000 0.000 0.000 0.000 0.000 Not Reported Not Reported
10/17/2020 03:40 PM 73.94 54.50 36.14 76.82 35.42 25.0 Not Reported 8.50 NE 12.75 N 13.87 N No 0.000 No Precipitation 10/15/2020 03:50 PM 10/15/2020 03:55 PM 0.000 0.000 0.000 0.000 0.000 Not Reported Not Reported
10/17/2020 03:50 PM 73.40 54.14 35.78 76.82 35.42 25.0 Not Reported 4.03 NW 4.92 N 9.84 N No 0.000 No Precipitation 10/15/2020 03:50 PM 10/15/2020 03:55 PM 0.000 0.000 0.000 0.000 0.000 Not Reported Not Reported
10/17/2020 03:55 PM 73.58 54.32 35.78 76.82 35.42 25.0 Not Reported 5.82 N 7.16 N 9.84 N No 0.000 No Precipitation 10/15/2020 03:50 PM 10/15/2020 03:55 PM 0.000 0.000 0.000 0.000 0.000 Not Reported Not Reported
10/17/2020 04:00 PM 72.68 53.96 35.78 76.82 35.42 25.0 Not Reported 7.16 N 7.61 NE 9.84 N No 0.000 No Precipitation 10/15/2020 03:50 PM 10/15/2020 03:55 PM 0.000 0.000 0.000 0.000 0.000 Not Reported Not Reported
10/17/2020 04:05 PM 73.22 54.14 36.14 76.82 35.42 25.0 Not Reported 5.37 N 2.01 NW 9.84 N No 0.000 No Precipitation 10/15/2020 03:50 PM 10/15/2020 03:55 PM 0.000 0.000 0.000 0.000 0.000 Not Reported Not Reported
10/17/2020 04:10 PM 73.40 54.32 35.96 76.82 35.42 25.0 Not Reported 3.13 NW 6.71 N 8.50 N No 0.000 No Precipitation 10/15/2020 03:50 PM 10/15/2020 03:55 PM 0.000 0.000 0.000 0.000 0.000 Not Reported Not Reported
10/17/2020 04:20 PM 73.04 54.14 36.14 75.92 35.42 25.0 Not Reported 6.04 N 7.16 N 7.61 N No 0.000 No Precipitation 10/15/2020 03:50 PM 10/15/2020 03:55 PM 0.000 0.000 0.000 0.000 0.000 Not Reported Not Reported
10/17/2020 04:25 PM 73.40 54.32 36.32 75.92 35.42 25.0 Not Reported 6.26 N 2.91 NW 9.40 N No 0.000 No Precipitation 10/15/2020 03:50 PM 10/15/2020 03:55 PM 0.000 0.000 0.000 0.000 0.000 Not Reported Not Reported
10/17/2020 04:30 PM 73.40 54.32 36.32 75.56 35.42 25.0 Not Reported 3.36 N 3.13 N 9.40 N No 0.000 No Precipitation 10/15/2020 03:50 PM 10/15/2020 03:55 PM 0.000 0.000 0.000 0.000 0.000 Not Reported Not Reported
10/17/2020 04:35 PM 73.58 54.50 36.50 75.56 35.42 25.0 Not Reported 3.13 N 1.79 NW 9.40 N No 0.000 No Precipitation 10/15/2020 03:50 PM 10/15/2020 03:55 PM 0.000 0.000 0.000 0.000 0.000 Not Reported Not Reported
10/17/2020 04:40 PM 73.58 54.32 36.14 75.56 35.42 25.0 Not Reported 2.68 NW 2.01 W 8.28 NW No 0.000 No Precipitation 10/15/2020 03:50 PM 10/15/2020 03:55 PM 0.000 0.000 0.000 0.000 0.000 Not Reported Not Reported
10/17/2020 04:45 PM 72.50 54.14 36.50 75.38 35.42 26.0 Not Reported 6.04 N 1.57 N 8.28 NW No 0.000 No Precipitation 10/15/2020 03:50 PM 10/15/2020 03:55 PM 0.000 0.000 0.000 0.000 0.000 Not Reported Not Reported
10/17/2020 04:50 PM 72.68 54.14 36.50 75.20 35.42 26.0 Not Reported 4.25 N 2.24 N 7.83 NW No 0.000 No Precipitation 10/15/2020 03:50 PM 10/15/2020 03:55 PM 0.000 0.000 0.000 0.000 0.000 Not Reported Not Reported
10/17/2020 04:55 PM 72.86 54.14 36.50 75.20 35.42 26.0 Not Reported 2.01 N 4.03 N 7.38 N No 0.000 No Precipitation 10/15/2020 03:50 PM 10/15/2020 03:55 PM 0.000 0.000 0.000 0.000 0.000 Not Reported Not Reported
10/17/2020 05:00 PM 73.40 54.50 36.68 75.20 35.42 26.0 Not Reported 4.03 NW 4.92 NW 4.92 NW No 0.000 No Precipitation 10/15/2020 03:50 PM 10/15/2020 03:55 PM 0.000 0.000 0.000 0.000 0.000 Not Reported Not Reported
10/17/2020 05:05 PM 72.50 54.14 36.68 74.84 35.42 27.0 Not Reported 2.68 NW 6.26 N 7.16 N No 0.000 No Precipitation 10/15/2020 03:50 PM 10/15/2020 03:55 PM 0.000 0.000 0.000 0.000 0.000 Not Reported Not Reported
10/17/2020 05:10 PM 72.14 53.96 36.86 74.84 35.42 27.0 Not Reported 4.70 NE 5.37 NW 7.83 N No 0.000 No Precipitation 10/15/2020 03:50 PM 10/15/2020 03:55 PM 0.000 0.000 0.000 0.000 0.000 Not Reported Not Reported
10/17/2020 05:15 PM 71.60 53.78 36.86 74.84 35.42 28.0 Not Reported 7.16 NE 4.25 N 9.17 N No 0.000 No Precipitation 10/15/2020 03:50 PM 10/15/2020 03:55 PM 0.000 0.000 0.000 0.000 0.000 Not Reported Not Reported
10/17/2020 05:20 PM 71.78 53.96 37.22 74.84 35.42 28.0 Not Reported 6.71 N 6.04 N 9.17 N No 0.000 No Precipitation 10/15/2020 03:50 PM 10/15/2020 03:55 PM 0.000 0.000 0.000 0.000 0.000 Not Reported Not Reported
10/17/2020 05:25 PM 71.96 54.14 37.40 74.84 35.42 28.0 Not Reported 2.46 NW 3.13 N 8.28 N No 0.000 No Precipitation 10/15/2020 03:50 PM 10/15/2020 03:55 PM 0.000 0.000 0.000 0.000 0.000 Not Reported Not Reported
10/17/2020 05:30 PM 71.78 53.96 37.22 74.84 35.42 28.0 Not Reported 3.80 N 2.46 N 5.82 W No 0.000 No Precipitation 10/15/2020 03:50 PM 10/15/2020 03:55 PM 0.000 0.000 0.000 0.000 0.000 Not Reported Not Reported
10/17/2020 05:35 PM 71.78 54.14 37.76 74.84 35.42 28.0 Not Reported 2.24 N 6.49 N 6.49 N No 0.000 No Precipitation 10/15/2020 03:50 PM 10/15/2020 03:55 PM 0.000 0.000 0.000 0.000 0.000 Not Reported Not Reported
10/17/2020 05:40 PM 71.24 53.96 37.94 74.84 35.42 29.0 Not Reported 2.91 N 1.79 N 6.49 N No 0.000 No Precipitation 10/15/2020 03:50 PM 10/15/2020 03:55 PM 0.000 0.000 0.000 0.000 0.000 Not Reported Not Reported
10/17/2020 05:45 PM 71.24 53.96 38.12 74.84 35.42 29.0 Not Reported 2.24 N 5.82 N 5.82 N No 0.000 No Precipitation 10/15/2020 03:50 PM 10/15/2020 03:55 PM 0.000 0.000 0.000 0.000 0.000 Not Reported Not Reported
10/17/2020 05:50 PM 70.88 53.96 37.94 74.84 35.42 29.0 Not Reported 2.24 NW 2.68 N 5.82 N No 0.000 No Precipitation 10/15/2020 03:50 PM 10/15/2020 03:55 PM 0.000 0.000 0.000 0.000 0.000 Not Reported Not Reported
10/17/2020 05:55 PM 70.52 53.42 37.22 74.84 35.42 29.0 Not Reported 2.46 NW 2.68 NW 4.70 N No 0.000 No Precipitation 10/15/2020 03:50 PM 10/15/2020 03:55 PM 0.000 0.000 0.000 0.000 0.000 Not Reported Not Reported
10/17/2020 06:00 PM 69.98 53.06 36.86 74.84 35.42 29.0 Not Reported 4.25 NW 2.91 NW 6.26 NW No 0.000 No Precipitation 10/15/2020 03:50 PM 10/15/2020 03:55 PM 0.000 0.000 0.000 0.000 0.000 Not Reported Not Reported
10/17/2020 06:05 PM 69.26 52.70 36.68 74.84 35.42 30.0 Not Reported 3.13 NW 1.12 NW 6.26 NW No 0.000 No Precipitation 10/15/2020 03:50 PM 10/15/2020 03:55 PM 0.000 0.000 0.000 0.000 0.000 Not Reported Not Reported
10/17/2020 06:10 PM 68.90 52.70 36.68 74.84 35.42 30.0 Not Reported 2.01 NW 2.24 W 5.14 NW No 0.000 No Precipitation 10/15/2020 03:50 PM 10/15/2020 03:55 PM 0.000 0.000 0.000 0.000 0.000 Not Reported Not Reported
10/17/2020 06:20 PM 67.28 51.98 36.86 74.84 35.42 32.0 Not Reported 2.01 NW 2.91 NW 3.58 W No 0.000 No Precipitation 10/15/2020 03:50 PM 10/15/2020 03:55 PM 0.000 0.000 0.000 0.000 0.000 Not Reported Not Reported
10/17/2020 06:25 PM 66.74 51.62 36.68 74.84 35.42 32.0 Not Reported 1.12 NW 2.24 NW 3.58 W No 0.000 No Precipitation 10/15/2020 03:50 PM 10/15/2020 03:55 PM 0.000 0.000 0.000 0.000 0.000 Not Reported Not Reported
10/17/2020 06:30 PM 66.20 51.44 36.68 74.84 35.42 33.0 Not Reported 2.01 NW 1.34 W 2.68 NW No 0.000 No Precipitation 10/15/2020 03:50 PM 10/15/2020 03:55 PM 0.000 0.000 0.000 0.000 0.000 Not Reported Not Reported
10/17/2020 06:35 PM 65.66 51.08 36.50 74.84 35.42 33.0 Not Reported 1.79 NW 1.57 NW 2.68 NW No 0.000 No Precipitation 10/15/2020 03:50 PM 10/15/2020 03:55 PM 0.000 0.000 0.000 0.000 0.000 Not Reported Not Reported
10/17/2020 06:40 PM 65.66 51.26 36.68 74.84 35.42 34.0 Not Reported 1.34 N 1.79 W 2.46 W No 0.000 No Precipitation 10/15/2020 03:50 PM 10/15/2020 03:55 PM 0.000 0.000 0.000 0.000 0.000 Not Reported Not Reported
10/17/2020 06:45 PM 65.66 51.08 36.68 74.84 35.42 34.0 Not Reported 0.89 N 0.89 NW 2.46 N No 0.000 No Precipitation 10/15/2020 03:50 PM 10/15/2020 03:55 PM 0.000 0.000 0.000 0.000 0.000 Not Reported Not Reported
10/17/2020 06:50 PM 64.94 50.72 36.50 74.84 35.42 34.0 Not Reported 1.57 N 2.01 NW 2.01 NW No 0.000 No Precipitation 10/15/2020 03:50 PM 10/15/2020 03:55 PM 0.000 0.000 0.000 0.000 0.000 Not Reported Not Reported
10/17/2020 06:55 PM 64.58 50.54 36.32 74.84 35.42 34.0 Not Reported 1.57 NW 1.79 W 2.24 NW No 0.000 No Precipitation 10/15/2020 03:50 PM 10/15/2020 03:55 PM 0.000 0.000 0.000 0.000 0.000 Not Reported Not Reported
10/17/2020 07:00 PM 63.86 50.18 36.32 74.84 35.42 35.0 Not Reported 1.57 NW 2.24 NW 2.24 NW No 0.000 No Precipitation 10/15/2020 03:50 PM 10/15/2020 03:55 PM 0.000 0.000 0.000 0.000 0.000 Not Reported Not Reported
10/17/2020 07:05 PM 63.86 50.18 36.14 74.84 35.42 35.0 Not Reported 0.89 NW 1.79 NW 2.24 NW No 0.000 No Precipitation 10/15/2020 03:50 PM 10/15/2020 03:55 PM 0.000 0.000 0.000 0.000 0.000 Not Reported Not Reported
10/17/2020 07:10 PM 63.50 49.82 35.96 74.84 35.42 35.0 Not Reported 1.57 NW 1.12 N 2.24 NW No 0.000 No Precipitation 10/15/2020 03:50 PM 10/15/2020 03:55 PM 0.000 0.000 0.000 0.000 0.000 Not Reported Not Reported
10/17/2020 07:15 PM 62.96 49.64 35.78 74.84 35.42 36.0 Not Reported 0.89 NW 2.68 NW 2.68 NW No 0.000 No Precipitation 10/15/2020 03:50 PM 10/15/2020 03:55 PM 0.000 0.000 0.000 0.000 0.000 Not Reported Not Reported
10/17/2020 07:20 PM 63.14 49.64 35.78 74.84 35.42 35.0 Not Reported 1.79 NW 2.01 NW 2.68 NW No 0.000 No Precipitation 10/15/2020 03:50 PM 10/15/2020 03:55 PM 0.000 0.000 0.000 0.000 0.000 Not Reported Not Reported
10/17/2020 07:25 PM 62.78 49.46 35.60 74.84 35.42 36.0 Not Reported 1.12 NW 2.01 NW 2.46 NW No 0.000 No Precipitation 10/15/2020 03:50 PM 10/15/2020 03:55 PM 0.000 0.000 0.000 0.000 0.000 Not Reported Not Reported
10/17/2020 07:30 PM 62.24 49.10 35.42 74.84 35.42 36.0 Not Reported 2.01 N 2.68 N 2.91 N No 0.000 No Precipitation 10/15/2020 03:50 PM 10/15/2020 03:55 PM 0.000 0.000 0.000 0.000 0.000 Not Reported Not Reported
10/17/2020 07:35 PM 62.24 49.28 35.42 74.84 35.42 36.0 Not Reported 2.01 NW 1.79 N 3.36 NW No 0.000 No Precipitation 10/15/2020 03:50 PM 10/15/2020 03:55 PM 0.000 0.000 0.000 0.000 0.000 Not Reported Not Reported
10/17/2020 07:40 PM 62.78 49.46 35.60 74.84 35.42 35.0 Not Reported 1.34 N 1.34 N 3.36 NW No 0.000 No Precipitation 10/15/2020 03:50 PM 10/15/2020 03:55 PM 0.000 0.000 0.000 0.000 0.000 Not Reported Not Reported
10/17/2020 07:45 PM 63.14 49.64 35.42 74.84 35.42 35.0 Not Reported 1.34 NW 2.91 NW 2.91 NW No 0.000 No Precipitation 10/15/2020 03:50 PM 10/15/2020 03:55 PM 0.000 0.000 0.000 0.000 0.000 Not Reported Not Reported
10/17/2020 07:50 PM 62.96 49.46 35.60 74.84 35.42 36.0 Not Reported 1.79 N 1.34 NW 2.91 NW No 0.000 No Precipitation 10/15/2020 03:50 PM 10/15/2020 03:55 PM 0.000 0.000 0.000 0.000 0.000 Not Reported Not Reported
10/17/2020 07:55 PM 62.60 49.28 35.42 74.84 35.42 36.0 Not Reported 0.89 NW 0.67 NW 2.68 N No 0.000 No Precipitation 10/15/2020 03:50 PM 10/15/2020 03:55 PM 0.000 0.000 0.000 0.000 0.000 Not Reported Not Reported
10/17/2020 08:00 PM 62.24 49.10 35.42 74.84 35.42 36.0 Not Reported 1.34 NW 1.57 N 3.58 N No 0.000 No Precipitation 10/15/2020 03:50 PM 10/15/2020 03:55 PM 0.000 0.000 0.000 0.000 0.000 Not Reported Not Reported
10/17/2020 08:05 PM 61.88 49.10 35.60 74.84 35.42 37.0 Not Reported 1.34 N 0.89 N 3.58 N No 0.000 No Precipitation 10/15/2020 03:50 PM 10/15/2020 03:55 PM 0.000 0.000 0.000 0.000 0.000 Not Reported Not Reported
10/17/2020 08:10 PM 61.88 48.92 35.42 74.84 35.42 37.0 Not Reported 1.57 N 1.57 N 2.46 N No 0.000 No Precipitation 10/15/2020 03:50 PM 10/15/2020 03:55 PM 0.000 0.000 0.000 0.000 0.000 Not Reported Not Reported
10/17/2020 08:20 PM 61.16 48.74 35.60 74.84 35.42 38.0 Not Reported 1.79 N 2.46 W 3.36 N No 0.000 No Precipitation 10/15/2020 03:50 PM 10/15/2020 03:55 PM 0.000 0.000 0.000 0.000 0.000 Not Reported Not Reported
10/17/2020 08:25 PM 60.26 48.20 35.42 74.84 35.42 39.0 Not Reported 1.57 NW 2.46 NW 3.36 N No 0.000 No Precipitation 10/15/2020 03:50 PM 10/15/2020 03:55 PM 0.000 0.000 0.000 0.000 0.000 Not Reported Not Reported
10/17/2020 08:30 PM 60.08 48.20 35.60 74.84 35.42 39.0 Not Reported 1.57 NW 1.12 NW 2.91 W No 0.000 No Precipitation 10/15/2020 03:50 PM 10/15/2020 03:55 PM 0.000 0.000 0.000 0.000 0.000 Not Reported Not Reported
10/17/2020 08:35 PM 59.90 48.20 35.78 74.84 35.42 40.0 Not Reported 2.01 NW 2.46 N 2.91 NW No 0.000 No Precipitation 10/15/2020 03:50 PM 10/15/2020 03:55 PM 0.000 0.000 0.000 0.000 0.000 Not Reported Not Reported
10/17/2020 08:40 PM 59.54 48.20 35.96 74.84 35.42 41.0 Not Reported 1.12 NW 1.57 NW 3.36 W No 0.000 No Precipitation 10/15/2020 03:50 PM 10/15/2020 03:55 PM 0.000 0.000 0.000 0.000 0.000 Not Reported Not Reported
10/17/2020 08:45 PM 59.72 48.20 35.96 74.84 35.42 40.0 Not Reported 0.89 N 0.22 NW 3.36 W No 0.000 No Precipitation 10/15/2020 03:50 PM 10/15/2020 03:55 PM 0.000 0.000 0.000 0.000 0.000 Not Reported Not Reported
10/17/2020 08:50 PM 59.54 48.20 36.14 74.84 35.42 41.0 Not Reported 0.89 NW 0.00 N 3.36 NW No 0.000 No Precipitation 10/15/2020 03:50 PM 10/15/2020 03:55 PM 0.000 0.000 0.000 0.000 0.000 Not Reported Not Reported
10/17/2020 08:55 PM 59.36 47.84 35.78 74.84 35.42 41.0 Not Reported 0.45 N 0.00 W 3.36 NW No 0.000 No Precipitation 10/15/2020 03:50 PM 10/15/2020 03:55 PM 0.000 0.000 0.000 0.000 0.000 Not Reported Not Reported
10/17/2020 09:00 PM 58.46 47.48 35.78 74.84 35.42 42.0 Not Reported 0.45 N 0.45 NW 1.34 NW No 0.000 No Precipitation 10/15/2020 03:50 PM 10/15/2020 03:55 PM 0.000 0.000 0.000 0.000 0.000 Not Reported Not Reported
10/17/2020 09:05 PM 58.28 47.48 35.96 74.84 35.42 42.0 Not Reported 0.89 N 1.57 N 2.24 NW No 0.000 No Precipitation 10/15/2020 03:50 PM 10/15/2020 03:55 PM 0.000 0.000 0.000 0.000 0.000 Not Reported Not Reported
10/17/2020 09:10 PM 58.46 47.66 35.96 74.84 35.42 42.0 Not Reported 2.68 N 0.89 N 3.36 N No 0.000 No Precipitation 10/15/2020 03:50 PM 10/15/2020 03:55 PM 0.000 0.000 0.000 0.000 0.000 Not Reported Not Reported
10/17/2020 09:15 PM 57.74 47.12 35.78 74.84 35.42 43.0 Not Reported 0.22 W 0.45 E 3.36 N No 0.000 No Precipitation 10/15/2020 03:50 PM 10/15/2020 03:55 PM 0.000 0.000 0.000 0.000 0.000 Not Reported Not Reported
10/17/2020 09:20 PM 55.94 46.22 35.78 74.84 35.42 46.0 Not Reported 1.12 SE 1.12 E 2.24 NE No 0.000 No Precipitation 10/15/2020 03:50 PM 10/15/2020 03:55 PM 0.000 0.000 0.000 0.000 0.000 Not Reported Not Reported
10/17/2020 09:30 PM 53.96 44.96 34.52 74.84 35.42 47.0 Not Reported 0.67 S 0.00 SW 4.03 SE No 0.000 No Precipitation 10/15/2020 03:50 PM 10/15/2020 03:55 PM 0.000 0.000 0.000 0.000 0.000 Not Reported Not Reported
10/17/2020 09:35 PM 54.86 45.68 36.50 74.84 35.42 49.0 Not Reported 1.57 E 2.01 NW 3.13 SE No 0.000 No Precipitation 10/15/2020 03:50 PM 10/15/2020 03:55 PM 0.000 0.000 0.000 0.000 0.000 Not Reported Not Reported
10/17/2020 09:40 PM 54.68 45.68 35.42 74.84 35.42 47.0 Not Reported 1.79 NW 1.79 NW 2.24 E No 0.000 No Precipitation 10/15/2020 03:50 PM 10/15/2020 03:55 PM 0.000 0.000 0.000 0.000 0.000 Not Reported Not Reported
10/17/2020 09:45 PM 55.40 46.22 36.14 74.84 35.42 48.0 Not Reported 0.67 NW 0.67 W 2.24 NW No 0.000 No Precipitation 10/15/2020 03:50 PM 10/15/2020 03:55 PM 0.000 0.000 0.000 0.000 0.000 Not Reported Not Reported
10/17/2020 09:50 PM 57.02 47.12 36.50 74.84 35.42 45.0 Not Reported 1.57 N 2.01 NW 3.13 NW No 0.000 No Precipitation 10/15/2020 03:50 PM 10/15/2020 03:55 PM 0.000 0.000 0.000 0.000 0.000 Not Reported Not Reported
10/17/2020 10:00 PM 54.86 45.68 35.60 74.84 35.42 48.0 Not Reported 1.34 SE 1.79 E 2.46 S No 0.000 No Precipitation 10/15/2020 03:50 PM 10/15/2020 03:55 PM 0.000 0.000 0.000 0.000 0.000 Not Reported Not Reported
10/17/2020 10:05 PM 53.78 45.14 35.24 74.84 35.42 49.0 Not Reported 0.67 E 1.34 E 2.46 S No 0.000 No Precipitation 10/15/2020 03:50 PM 10/15/2020 03:55 PM 0.000 0.000 0.000 0.000 0.000 Not Reported Not Reported
10/17/2020 10:10 PM 53.42 44.60 34.16 74.84 35.42 47.0 Not Reported 2.24 NE 1.57 NE 3.13 NE No 0.000 No Precipitation 10/15/2020 03:50 PM 10/15/2020 03:55 PM 0.000 0.000 0.000 0.000 0.000 Not Reported Not Reported
10/17/2020 10:15 PM 53.60 45.32 35.96 74.84 35.42 50.0 Not Reported 2.91 N 2.91 N 3.36 NE No 0.000 No Precipitation 10/15/2020 03:50 PM 10/15/2020 03:55 PM 0.000 0.000 0.000 0.000 0.000 Not Reported Not Reported
10/17/2020 10:20 PM 53.78 45.32 35.78 74.84 35.42 50.0 Not Reported 2.68 N 2.68 NE 3.36 N No 0.000 No Precipitation 10/15/2020 03:50 PM 10/15/2020 03:55 PM 0.000 0.000 0.000 0.000 0.000 Not Reported Not Reported
10/17/2020 10:25 PM 52.70 44.60 35.24 74.84 35.42 51.0 Not Reported 3.13 NE 3.80 NE 4.70 N No 0.000 No Precipitation 10/15/2020 03:50 PM 10/15/2020 03:55 PM 0.000 0.000 0.000 0.000 0.000 Not Reported Not Reported
10/17/2020 10:30 PM 53.42 45.32 36.32 74.84 35.42 51.0 Not Reported 3.80 NE 3.36 NE 4.70 N No 0.000 No Precipitation 10/15/2020 03:50 PM 10/15/2020 03:55 PM 0.000 0.000 0.000 0.000 0.000 Not Reported Not Reported
10/17/2020 10:35 PM 54.32 45.68 36.50 74.84 35.42 50.0 Not Reported 3.13 NE 4.03 N 4.25 N No 0.000 No Precipitation 10/15/2020 03:50 PM 10/15/2020 03:55 PM 0.000 0.000 0.000 0.000 0.000 Not Reported Not Reported
10/17/2020 10:40 PM 55.22 46.40 37.04 74.84 35.42 50.0 Not Reported 2.68 N 6.04 N 6.04 N No 0.000 No Precipitation 10/15/2020 03:50 PM 10/15/2020 03:55 PM 0.000 0.000 0.000 0.000 0.000 Not Reported Not Reported
10/17/2020 10:45 PM 56.84 47.30 37.22 74.84 35.42 47.0 Not Reported 3.36 NW 4.47 N 6.04 W No 0.000 No Precipitation 10/15/2020 03:50 PM 10/15/2020 03:55 PM 0.000 0.000 0.000 0.000 0.000 Not Reported Not Reported
10/17/2020 10:50 PM 56.84 47.30 37.22 74.84 35.42 47.0 Not Reported 2.91 N 3.13 NE 6.04 W No 0.000 No Precipitation 10/15/2020 03:50 PM 10/15/2020 03:55 PM 0.000 0.000 0.000 0.000 0.000 Not Reported Not Reported
10/17/2020 10:55 PM 56.12 46.94 37.04 74.84 35.42 48.0 Not Reported 4.47 N 1.57 N 5.14 N No 0.000 No Precipitation 10/15/2020 03:50 PM 10/15/2020 03:55 PM 0.000 0.000 0.000 0.000 0.000 Not Reported Not Reported
10/17/2020 11:00 PM 54.68 46.04 36.86 74.84 35.42 50.0 Not Reported 1.34 NE 2.24 NE 5.14 N No 0.000 No Precipitation 10/15/2020 03:50 PM 10/15/2020 03:55 PM 0.000 0.000 0.000 0.000 0.000 Not Reported Not Reported
10/17/2020 11:05 PM 53.60 45.50 36.68 74.84 35.42 52.0 Not Reported 1.34 NE 2.68 E 2.68 E No 0.000 No Precipitation 10/15/2020 03:50 PM 10/15/2020 03:55 PM 0.000 0.000 0.000 0.000 0.000 Not Reported Not Reported
10/17/2020 11:10 PM 54.14 45.86 36.86 74.84 35.42 52.0 Not Reported 2.01 NE 2.01 NE 2.68 E No 0.000 No Precipitation 10/15/2020 03:50 PM 10/15/2020 03:55 PM 0.000 0.000 0.000 0.000 0.000 Not Reported Not Reported
10/17/2020 11:15 PM 53.42 45.32 36.50 74.84 35.42 52.0 Not Reported 2.68 NE 2.68 NE 3.13 N No 0.000 No Precipitation 10/15/2020 03:50 PM 10/15/2020 03:55 PM 0.000 0.000 0.000 0.000 0.000 Not Reported Not Reported
10/17/2020 11:20 PM 52.88 45.32 36.86 74.84 35.42 54.0 Not Reported 2.68 N 2.46 NE 3.36 NE No 0.000 No Precipitation 10/15/2020 03:50 PM 10/15/2020 03:55 PM 0.000 0.000 0.000 0.000 0.000 Not Reported Not Reported
10/17/2020 11:25 PM 52.88 45.32 36.86 74.84 35.42 54.0 Not Reported 2.24 E 2.46 E 3.36 NE No 0.000 No Precipitation 10/15/2020 03:50 PM 10/15/2020 03:55 PM 0.000 0.000 0.000 0.000 0.000 Not Reported Not Reported
10/17/2020 11:30 PM 51.44 44.24 36.32 74.84 35.42 56.0 Not Reported 2.24 E 2.68 NE 3.36 NE No 0.000 No Precipitation 10/15/2020 03:50 PM 10/15/2020 03:55 PM 0.000 0.000 0.000 0.000 0.000 Not Reported Not Reported
10/17/2020 11:35 PM 50.72 44.06 36.50 74.84 35.42 58.0 Not Reported 4.25 E 2.91 E 5.14 E No 0.000 No Precipitation 10/15/2020 03:50 PM 10/15/2020 03:55 PM 0.000 0.000 0.000 0.000 0.000 Not Reported Not Reported
10/17/2020 11:40 PM 49.82 43.34 35.78 74.84 35.42 58.0 Not Reported 4.47 E 3.13 E 5.14 E No 0.000 No Precipitation 10/15/2020 03:50 PM 10/15/2020 03:55 PM 0.000 0.000 0.000 0.000 0.000 Not Reported Not Reported
10/17/2020 11:45 PM 48.74 42.80 35.78 74.84 35.42 60.0 Not Reported 2.91 E 0.89 E 4.70 E No 0.000 No Precipitation 10/15/2020 03:50 PM 10/15/2020 03:55 PM 0.000 0.000 0.000 0.000 0.000 Not Reported Not Reported
10/17/2020 11:50 PM 49.46 43.34 35.96 74.84 35.42 59.0 Not Reported 2.24 NE 1.79 NE 3.58 E No 0.000 No Precipitation 10/15/2020 03:50 PM 10/15/2020 03:55 PM 0.000 0.000 0.000 0.000 0.000 Not Reported Not Reported
10/17/2020 11:55 PM 48.56 42.44 35.06 74.84 35.42 59.0 Not Reported 4.03 E 2.91 E 4.47 E No 0.000 No Precipitation 10/15/2020 03:50 PM 10/15/2020 03:55 PM 0.000 0.000 0.000 0.000 0.000 Not Reported Not Reported